sensor_id;sensor_type;location;lat;lon;timestamp;pressure;altitude;pressure_sealevel;temperature;humidity
6435;BME280;3250;42.694;23.278;2023-02-18T00:00:51;95552.75;;;4.42;61.71
6435;BME280;3250;42.694;23.278;2023-02-18T00:03:16;95576.06;;;4.43;62.10
6435;BME280;3250;42.694;23.278;2023-02-18T00:05:42;95581.63;;;4.40;62.23
6435;BME280;3250;42.694;23.278;2023-02-18T00:08:07;95573.56;;;4.34;62.47
6435;BME280;3250;42.694;23.278;2023-02-18T00:10:32;95525.88;;;4.07;62.96
6435;BME280;3250;42.694;23.278;2023-02-18T00:12:58;95563.97;;;4.34;62.14
6435;BME280;3250;42.694;23.278;2023-02-18T00:15:25;95556.78;;;4.28;62.40
6435;BME280;3250;42.694;23.278;2023-02-18T00:17:51;95561.59;;;4.41;62.15
6435;BME280;3250;42.694;23.278;2023-02-18T00:20:16;95566.63;;;4.16;62.81
6435;BME280;3250;42.694;23.278;2023-02-18T00:22:42;95552.84;;;4.24;63.07
6435;BME280;3250;42.694;23.278;2023-02-18T00:25:07;95545.69;;;4.26;62.92
6435;BME280;3250;42.694;23.278;2023-02-18T00:27:32;95525.69;;;4.01;63.41
6435;BME280;3250;42.694;23.278;2023-02-18T00:29:58;95532.47;;;4.20;63.72
6435;BME280;3250;42.694;23.278;2023-02-18T00:32:23;95538.34;;;4.22;63.43
6435;BME280;3250;42.694;23.278;2023-02-18T00:34:49;95535.13;;;3.76;64.70
6435;BME280;3250;42.694;23.278;2023-02-18T00:37:14;95532.63;;;3.66;65.86
6435;BME280;3250;42.694;23.278;2023-02-18T00:39:39;95535.47;;;3.81;65.10
6435;BME280;3250;42.694;23.278;2023-02-18T00:42:05;95531.75;;;3.84;64.85
6435;BME280;3250;42.694;23.278;2023-02-18T00:44:30;95533.19;;;3.78;65.49
6435;BME280;3250;42.694;23.278;2023-02-18T00:46:56;95526.06;;;3.80;65.23
6435;BME280;3250;42.694;23.278;2023-02-18T00:49:21;95532.06;;;3.80;65.13
6435;BME280;3250;42.694;23.278;2023-02-18T00:51:47;95522.09;;;3.76;65.47
6435;BME280;3250;42.694;23.278;2023-02-18T00:54:12;95519.09;;;3.63;65.08
6435;BME280;3250;42.694;23.278;2023-02-18T00:56:37;95528.28;;;3.75;65.63
6435;BME280;3250;42.694;23.278;2023-02-18T00:59:03;95508.75;;;3.71;65.46
6435;BME280;3250;42.694;23.278;2023-02-18T01:01:28;95509.97;;;3.85;64.85
6435;BME280;3250;42.694;23.278;2023-02-18T01:03:54;95513.53;;;3.84;64.81
6435;BME280;3250;42.694;23.278;2023-02-18T01:06:20;95529.53;;;3.89;65.07
6435;BME280;3250;42.694;23.278;2023-02-18T01:08:46;95507.06;;;3.62;65.26
6435;BME280;3250;42.694;23.278;2023-02-18T01:11:12;95504.22;;;3.55;65.64
6435;BME280;3250;42.694;23.278;2023-02-18T01:13:39;95520.63;;;3.73;65.39
6435;BME280;3250;42.694;23.278;2023-02-18T01:16:04;95512.59;;;3.67;64.90
6435;BME280;3250;42.694;23.278;2023-02-18T01:18:30;95476.50;;;3.46;65.20
6435;BME280;3250;42.694;23.278;2023-02-18T01:20:56;95526.34;;;3.77;65.16
6435;BME280;3250;42.694;23.278;2023-02-18T01:23:22;95524.72;;;3.76;65.09
6435;BME280;3250;42.694;23.278;2023-02-18T01:25:47;95516.88;;;3.50;65.48
6435;BME280;3250;42.694;23.278;2023-02-18T01:28:13;95504.69;;;3.51;65.71
6435;BME280;3250;42.694;23.278;2023-02-18T01:30:39;95493.53;;;3.40;65.46
6435;BME280;3250;42.694;23.278;2023-02-18T01:33:05;95512.94;;;3.46;65.63
6435;BME280;3250;42.694;23.278;2023-02-18T01:35:31;95516.06;;;3.50;66.12
6435;BME280;3250;42.694;23.278;2023-02-18T01:37:57;95507.28;;;3.51;66.13
6435;BME280;3250;42.694;23.278;2023-02-18T01:40:27;95514.94;;;3.52;66.25
6435;BME280;3250;42.694;23.278;2023-02-18T01:42:53;95519.69;;;3.57;66.26
6435;BME280;3250;42.694;23.278;2023-02-18T01:48:06;95524.22;;;3.55;66.12
6435;BME280;3250;42.694;23.278;2023-02-18T01:50:36;95533.03;;;3.54;65.96
6435;BME280;3250;42.694;23.278;2023-02-18T01:53:02;95525.50;;;3.51;65.62
6435;BME280;3250;42.694;23.278;2023-02-18T01:55:28;95539.28;;;3.43;66.34
6435;BME280;3250;42.694;23.278;2023-02-18T01:57:53;95549.34;;;3.46;66.73
6435;BME280;3250;42.694;23.278;2023-02-18T02:00:20;95501.00;;;3.35;65.77
6435;BME280;3250;42.694;23.278;2023-02-18T02:02:51;95499.97;;;3.28;65.96
6435;BME280;3250;42.694;23.278;2023-02-18T02:05:19;95524.09;;;3.38;66.04
6435;BME280;3250;42.694;23.278;2023-02-18T02:07:46;95520.03;;;3.36;66.27
6435;BME280;3250;42.694;23.278;2023-02-18T02:10:14;95512.31;;;3.26;66.96
6435;BME280;3250;42.694;23.278;2023-02-18T02:29:12;95523.38;;;3.11;67.25
6435;BME280;3250;42.694;23.278;2023-02-18T02:43:05;95509.25;;;3.13;68.06
6435;BME280;3250;42.694;23.278;2023-02-18T02:53:47;95510.53;;;3.09;68.60
6435;BME280;3250;42.694;23.278;2023-02-18T02:56:18;95504.03;;;3.13;68.74
6435;BME280;3250;42.694;23.278;2023-02-18T02:58:44;95490.47;;;3.01;68.10
6435;BME280;3250;42.694;23.278;2023-02-18T03:12:52;95516.41;;;3.11;68.67
6435;BME280;3250;42.694;23.278;2023-02-18T03:15:24;95498.63;;;3.07;68.34
6435;BME280;3250;42.694;23.278;2023-02-18T03:20:31;95518.31;;;3.27;67.41
6435;BME280;3250;42.694;23.278;2023-02-18T03:23:01;95525.88;;;3.20;67.33
6435;BME280;3250;42.694;23.278;2023-02-18T03:25:29;95543.31;;;3.20;67.52
6435;BME280;3250;42.694;23.278;2023-02-18T03:27:59;95560.69;;;3.19;67.38
6435;BME280;3250;42.694;23.278;2023-02-18T03:30:33;95562.41;;;3.11;68.18
6435;BME280;3250;42.694;23.278;2023-02-18T03:33:03;95543.44;;;3.00;68.52
6435;BME280;3250;42.694;23.278;2023-02-18T03:35:29;95555.03;;;3.06;68.49
6435;BME280;3250;42.694;23.278;2023-02-18T03:38:03;95547.13;;;2.98;68.28
6435;BME280;3250;42.694;23.278;2023-02-18T03:40:32;95569.19;;;3.12;67.96
6435;BME280;3250;42.694;23.278;2023-02-18T03:42:58;95567.44;;;3.12;68.04
6435;BME280;3250;42.694;23.278;2023-02-18T03:45:24;95561.50;;;3.02;68.70
6435;BME280;3250;42.694;23.278;2023-02-18T03:47:51;95556.78;;;2.88;68.79
6435;BME280;3250;42.694;23.278;2023-02-18T03:50:16;95573.97;;;2.98;68.67
6435;BME280;3250;42.694;23.278;2023-02-18T03:52:42;95583.63;;;3.06;68.58
6435;BME280;3250;42.694;23.278;2023-02-18T03:55:07;95576.66;;;2.79;68.99
6435;BME280;3250;42.694;23.278;2023-02-18T03:57:33;95573.50;;;2.85;69.53
6435;BME280;3250;42.694;23.278;2023-02-18T03:59:59;95556.69;;;2.80;69.41
6435;BME280;3250;42.694;23.278;2023-02-18T04:02:24;95566.28;;;2.79;69.51
6435;BME280;3250;42.694;23.278;2023-02-18T04:04:50;95568.75;;;2.98;69.09
6435;BME280;3250;42.694;23.278;2023-02-18T04:07:15;95564.97;;;2.93;68.90
6435;BME280;3250;42.694;23.278;2023-02-18T04:09:40;95557.47;;;2.90;68.67
6435;BME280;3250;42.694;23.278;2023-02-18T04:12:06;95557.50;;;2.80;69.13
6435;BME280;3250;42.694;23.278;2023-02-18T04:14:31;95551.50;;;2.80;69.01
6435;BME280;3250;42.694;23.278;2023-02-18T04:16:57;95550.38;;;2.82;68.96
6435;BME280;3250;42.694;23.278;2023-02-18T04:19:22;95544.91;;;2.85;68.67
6435;BME280;3250;42.694;23.278;2023-02-18T04:21:48;95528.09;;;2.80;68.91
6435;BME280;3250;42.694;23.278;2023-02-18T04:24:13;95519.53;;;2.70;70.16
6435;BME280;3250;42.694;23.278;2023-02-18T04:26:39;95521.47;;;2.68;70.47
6435;BME280;3250;42.694;23.278;2023-02-18T04:29:04;95496.38;;;2.58;69.56
6435;BME280;3250;42.694;23.278;2023-02-18T04:31:29;95522.22;;;2.78;70.08
6435;BME280;3250;42.694;23.278;2023-02-18T04:33:56;95529.06;;;2.79;69.77
6435;BME280;3250;42.694;23.278;2023-02-18T04:36:21;95532.69;;;2.86;69.44
6435;BME280;3250;42.694;23.278;2023-02-18T04:38:47;95534.72;;;2.92;69.61
6435;BME280;3250;42.694;23.278;2023-02-18T04:41:12;95524.63;;;2.89;69.02
6435;BME280;3250;42.694;23.278;2023-02-18T04:43:38;95536.66;;;2.90;69.68
6435;BME280;3250;42.694;23.278;2023-02-18T04:46:03;95531.16;;;2.93;69.55
6435;BME280;3250;42.694;23.278;2023-02-18T04:48:29;95514.06;;;2.73;69.33
6435;BME280;3250;42.694;23.278;2023-02-18T04:50:55;95541.84;;;2.90;69.56
6435;BME280;3250;42.694;23.278;2023-02-18T04:53:20;95546.09;;;2.91;69.78
6435;BME280;3250;42.694;23.278;2023-02-18T04:55:53;95548.91;;;2.97;69.70
6435;BME280;3250;42.694;23.278;2023-02-18T04:58:19;95556.66;;;3.07;69.65
6435;BME280;3250;42.694;23.278;2023-02-18T05:00:45;95555.09;;;2.96;69.35
6435;BME280;3250;42.694;23.278;2023-02-18T05:03:10;95562.31;;;3.02;70.21
6435;BME280;3250;42.694;23.278;2023-02-18T05:05:36;95578.50;;;3.14;69.08
6435;BME280;3250;42.694;23.278;2023-02-18T05:08:02;95573.31;;;3.14;70.13
6435;BME280;3250;42.694;23.278;2023-02-18T05:10:29;95569.16;;;3.21;69.93
6435;BME280;3250;42.694;23.278;2023-02-18T05:12:54;95536.97;;;3.04;69.57
6435;BME280;3250;42.694;23.278;2023-02-18T05:15:19;95564.41;;;3.17;70.33
6435;BME280;3250;42.694;23.278;2023-02-18T05:17:45;95549.47;;;3.19;70.57
6435;BME280;3250;42.694;23.278;2023-02-18T05:20:11;95567.28;;;3.14;70.59
6435;BME280;3250;42.694;23.278;2023-02-18T05:22:37;95553.72;;;3.20;69.89
6435;BME280;3250;42.694;23.278;2023-02-18T05:25:03;95544.19;;;2.93;70.78
6435;BME280;3250;42.694;23.278;2023-02-18T05:27:28;95559.91;;;2.91;71.40
6435;BME280;3250;42.694;23.278;2023-02-18T05:29:54;95541.56;;;2.93;71.05
6435;BME280;3250;42.694;23.278;2023-02-18T05:32:19;95536.28;;;2.85;71.27
6435;BME280;3250;42.694;23.278;2023-02-18T05:34:45;95530.09;;;2.86;71.45
6435;BME280;3250;42.694;23.278;2023-02-18T05:37:10;95551.19;;;3.10;71.02
6435;BME280;3250;42.694;23.278;2023-02-18T05:39:37;95541.06;;;3.25;70.37
6435;BME280;3250;42.694;23.278;2023-02-18T05:42:03;95523.97;;;3.22;69.88
6435;BME280;3250;42.694;23.278;2023-02-18T05:44:28;95541.34;;;3.39;69.81
6435;BME280;3250;42.694;23.278;2023-02-18T05:46:54;95538.94;;;3.46;69.50
6435;BME280;3250;42.694;23.278;2023-02-18T05:49:20;95538.53;;;3.51;69.30
6435;BME280;3250;42.694;23.278;2023-02-18T05:51:46;95555.75;;;3.69;68.95
6435;BME280;3250;42.694;23.278;2023-02-18T05:54:12;95562.66;;;3.78;69.01
6435;BME280;3250;42.694;23.278;2023-02-18T05:56:37;95569.84;;;3.85;68.80
6435;BME280;3250;42.694;23.278;2023-02-18T05:59:03;95551.78;;;3.83;68.48
6435;BME280;3250;42.694;23.278;2023-02-18T06:01:28;95580.22;;;4.02;67.80
6435;BME280;3250;42.694;23.278;2023-02-18T06:03:54;95573.41;;;3.84;68.27
6435;BME280;3250;42.694;23.278;2023-02-18T06:06:20;95566.81;;;3.89;68.76
6435;BME280;3250;42.694;23.278;2023-02-18T06:08:45;95564.31;;;4.05;68.24
6435;BME280;3250;42.694;23.278;2023-02-18T06:11:10;95560.00;;;3.96;68.68
6435;BME280;3250;42.694;23.278;2023-02-18T06:13:36;95565.78;;;4.08;69.30
6435;BME280;3250;42.694;23.278;2023-02-18T06:16:01;95532.56;;;4.10;67.90
6435;BME280;3250;42.694;23.278;2023-02-18T06:18:27;95564.97;;;4.41;68.76
6435;BME280;3250;42.694;23.278;2023-02-18T06:20:52;95562.81;;;4.63;67.84
6435;BME280;3250;42.694;23.278;2023-02-18T06:23:18;95567.47;;;4.51;67.27
6435;BME280;3250;42.694;23.278;2023-02-18T06:25:43;95565.94;;;4.66;67.29
6435;BME280;3250;42.694;23.278;2023-02-18T06:28:09;95535.28;;;4.68;66.80
6435;BME280;3250;42.694;23.278;2023-02-18T06:30:34;95541.88;;;4.88;66.22
6435;BME280;3250;42.694;23.278;2023-02-18T06:32:59;95550.22;;;5.00;65.29
6435;BME280;3250;42.694;23.278;2023-02-18T06:35:28;95516.47;;;4.90;65.33
6435;BME280;3250;42.694;23.278;2023-02-18T06:37:53;95547.31;;;5.11;64.86
6435;BME280;3250;42.694;23.278;2023-02-18T06:40:19;95548.63;;;5.15;64.41
6435;BME280;3250;42.694;23.278;2023-02-18T06:42:44;95540.50;;;5.18;64.78
6435;BME280;3250;42.694;23.278;2023-02-18T06:45:10;95547.38;;;5.36;65.12
6435;BME280;3250;42.694;23.278;2023-02-18T06:47:36;95552.59;;;5.44;64.96
6435;BME280;3250;42.694;23.278;2023-02-18T06:50:01;95554.41;;;5.59;64.49
6435;BME280;3250;42.694;23.278;2023-02-18T06:52:27;95549.31;;;5.66;63.79
6435;BME280;3250;42.694;23.278;2023-02-18T06:54:54;95550.47;;;5.72;63.82
6435;BME280;3250;42.694;23.278;2023-02-18T06:57:20;95553.06;;;5.80;63.35
6435;BME280;3250;42.694;23.278;2023-02-18T06:59:45;95549.34;;;5.90;63.02
6435;BME280;3250;42.694;23.278;2023-02-18T07:02:13;95560.56;;;6.15;62.76
6435;BME280;3250;42.694;23.278;2023-02-18T07:04:39;95560.88;;;6.36;62.48
6435;BME280;3250;42.694;23.278;2023-02-18T07:07:04;95551.03;;;6.55;61.94
6435;BME280;3250;42.694;23.278;2023-02-18T07:09:30;95534.31;;;6.64;60.40
6435;BME280;3250;42.694;23.278;2023-02-18T07:11:56;95559.31;;;7.05;58.11
6435;BME280;3250;42.694;23.278;2023-02-18T07:14:21;95527.34;;;7.10;57.09
6435;BME280;3250;42.694;23.278;2023-02-18T07:16:48;95545.31;;;7.21;57.69
6435;BME280;3250;42.694;23.278;2023-02-18T07:19:14;95541.47;;;7.32;57.90
6435;BME280;3250;42.694;23.278;2023-02-18T07:21:39;95509.06;;;7.33;56.99
6435;BME280;3250;42.694;23.278;2023-02-18T07:24:05;95500.75;;;7.52;56.22
6435;BME280;3250;42.694;23.278;2023-02-18T07:26:30;95491.13;;;7.67;53.33
6435;BME280;3250;42.694;23.278;2023-02-18T07:28:56;95538.47;;;8.03;52.97
6435;BME280;3250;42.694;23.278;2023-02-18T07:31:21;95545.06;;;8.14;52.79
6435;BME280;3250;42.694;23.278;2023-02-18T07:33:47;95542.09;;;8.17;52.54
6435;BME280;3250;42.694;23.278;2023-02-18T07:36:12;95551.34;;;8.27;53.00
6435;BME280;3250;42.694;23.278;2023-02-18T07:38:37;95547.13;;;8.41;52.92
6435;BME280;3250;42.694;23.278;2023-02-18T07:41:03;95555.81;;;8.86;51.58
6435;BME280;3250;42.694;23.278;2023-02-18T07:43:28;95525.19;;;8.93;49.62
6435;BME280;3250;42.694;23.278;2023-02-18T07:45:54;95549.63;;;9.08;48.58
6435;BME280;3250;42.694;23.278;2023-02-18T07:48:19;95558.75;;;9.12;48.52
6435;BME280;3250;42.694;23.278;2023-02-18T07:50:45;95568.63;;;9.25;49.02
6435;BME280;3250;42.694;23.278;2023-02-18T07:53:13;95573.53;;;9.13;47.82
6435;BME280;3250;42.694;23.278;2023-02-18T07:55:38;95572.19;;;8.88;48.26
6435;BME280;3250;42.694;23.278;2023-02-18T07:58:24;95571.22;;;8.89;49.23
6435;BME280;3250;42.694;23.278;2023-02-18T08:00:51;95530.44;;;8.93;49.78
6435;BME280;3250;42.694;23.278;2023-02-18T08:03:18;95553.50;;;9.12;48.54
6435;BME280;3250;42.694;23.278;2023-02-18T08:05:44;95553.91;;;8.94;48.49
6435;BME280;3250;42.694;23.278;2023-02-18T08:08:19;95569.16;;;9.20;49.52
6435;BME280;3250;42.694;23.278;2023-02-18T08:10:45;95576.25;;;9.05;48.50
6435;BME280;3250;42.694;23.278;2023-02-18T08:13:11;95561.22;;;9.14;48.83
6435;BME280;3250;42.694;23.278;2023-02-18T08:15:38;95561.31;;;9.41;48.56
6435;BME280;3250;42.694;23.278;2023-02-18T08:18:04;95539.66;;;9.61;48.20
6435;BME280;3250;42.694;23.278;2023-02-18T08:20:29;95545.31;;;9.79;47.19
6435;BME280;3250;42.694;23.278;2023-02-18T08:22:55;95546.25;;;9.93;46.22
6435;BME280;3250;42.694;23.278;2023-02-18T08:25:20;95532.56;;;9.76;46.79
6435;BME280;3250;42.694;23.278;2023-02-18T08:27:45;95537.84;;;9.61;46.93
6435;BME280;3250;42.694;23.278;2023-02-18T08:30:11;95525.13;;;9.43;47.39
6435;BME280;3250;42.694;23.278;2023-02-18T08:32:37;95542.56;;;9.66;47.68
6435;BME280;3250;42.694;23.278;2023-02-18T08:35:02;95534.53;;;9.74;47.24
6435;BME280;3250;42.694;23.278;2023-02-18T08:37:29;95542.03;;;9.98;46.93
6435;BME280;3250;42.694;23.278;2023-02-18T08:39:54;95530.97;;;10.03;46.39
6435;BME280;3250;42.694;23.278;2023-02-18T08:42:20;95522.44;;;10.01;46.76
6435;BME280;3250;42.694;23.278;2023-02-18T08:44:45;95501.22;;;9.81;47.52
6435;BME280;3250;42.694;23.278;2023-02-18T08:47:11;95531.03;;;10.16;47.84
6435;BME280;3250;42.694;23.278;2023-02-18T08:49:36;95538.28;;;10.29;47.44
6435;BME280;3250;42.694;23.278;2023-02-18T08:52:03;95538.00;;;10.51;46.75
6435;BME280;3250;42.694;23.278;2023-02-18T08:54:28;95503.16;;;10.49;46.78
6435;BME280;3250;42.694;23.278;2023-02-18T08:56:55;95542.44;;;10.85;46.17
6435;BME280;3250;42.694;23.278;2023-02-18T08:59:23;95544.56;;;11.03;46.16
6435;BME280;3250;42.694;23.278;2023-02-18T09:01:49;95528.38;;;11.13;45.51
6435;BME280;3250;42.694;23.278;2023-02-18T09:04:14;95534.09;;;11.29;44.94
6435;BME280;3250;42.694;23.278;2023-02-18T09:06:41;95513.66;;;11.31;44.57
6435;BME280;3250;42.694;23.278;2023-02-18T09:09:06;95524.38;;;11.37;43.27
6435;BME280;3250;42.694;23.278;2023-02-18T09:11:32;95540.88;;;11.58;43.78
6435;BME280;3250;42.694;23.278;2023-02-18T09:13:58;95503.13;;;11.45;43.76
6435;BME280;3250;42.694;23.278;2023-02-18T09:16:24;95531.63;;;11.82;43.93
6435;BME280;3250;42.694;23.278;2023-02-18T09:18:49;95534.28;;;12.02;43.67
6435;BME280;3250;42.694;23.278;2023-02-18T09:21:15;95540.16;;;11.84;43.75
6435;BME280;3250;42.694;23.278;2023-02-18T09:23:43;95544.00;;;12.08;42.81
6435;BME280;3250;42.694;23.278;2023-02-18T09:26:12;95530.38;;;12.44;42.49
6435;BME280;3250;42.694;23.278;2023-02-18T09:28:38;95508.84;;;12.54;43.11
6435;BME280;3250;42.694;23.278;2023-02-18T09:31:11;95505.44;;;12.98;41.75
6435;BME280;3250;42.694;23.278;2023-02-18T09:33:39;95499.03;;;13.32;40.89
6435;BME280;3250;42.694;23.278;2023-02-18T09:36:06;95488.44;;;13.63;39.41
6435;BME280;3250;42.694;23.278;2023-02-18T09:38:31;95497.09;;;13.77;38.68
6435;BME280;3250;42.694;23.278;2023-02-18T09:40:58;95482.63;;;13.79;38.67
6435;BME280;3250;42.694;23.278;2023-02-18T09:43:30;95509.16;;;14.22;37.22
6435;BME280;3250;42.694;23.278;2023-02-18T09:45:58;95512.09;;;14.39;38.55
6435;BME280;3250;42.694;23.278;2023-02-18T09:48:30;95503.59;;;14.73;38.19
6435;BME280;3250;42.694;23.278;2023-02-18T09:50:57;95510.44;;;15.18;36.09
6435;BME280;3250;42.694;23.278;2023-02-18T09:53:23;95511.72;;;15.45;36.26
6435;BME280;3250;42.694;23.278;2023-02-18T09:55:51;95485.72;;;15.54;36.27
6435;BME280;3250;42.694;23.278;2023-02-18T09:58:29;95491.56;;;15.74;35.63
6435;BME280;3250;42.694;23.278;2023-02-18T10:03:35;95469.69;;;15.60;33.40
6435;BME280;3250;42.694;23.278;2023-02-18T10:06:03;95475.94;;;15.66;32.79
6435;BME280;3250;42.694;23.278;2023-02-18T10:08:35;95467.41;;;15.75;37.97
6435;BME280;3250;42.694;23.278;2023-02-18T10:11:01;95458.91;;;15.97;33.89
6435;BME280;3250;42.694;23.278;2023-02-18T10:13:30;95475.91;;;16.07;34.64
6435;BME280;3250;42.694;23.278;2023-02-18T10:15:57;95453.28;;;16.16;33.10
6435;BME280;3250;42.694;23.278;2023-02-18T10:18:29;95475.09;;;16.53;33.55
6435;BME280;3250;42.694;23.278;2023-02-18T10:21:10;95472.81;;;16.69;31.54
6435;BME280;3250;42.694;23.278;2023-02-18T10:23:39;95463.91;;;16.86;30.89
6435;BME280;3250;42.694;23.278;2023-02-18T10:26:11;95448.03;;;16.91;30.65
6435;BME280;3250;42.694;23.278;2023-02-18T10:28:38;95454.91;;;17.04;29.70
6435;BME280;3250;42.694;23.278;2023-02-18T10:31:09;95428.00;;;17.01;31.45
6435;BME280;3250;42.694;23.278;2023-02-18T10:36:41;95457.38;;;17.34;29.39
6435;BME280;3250;42.694;23.278;2023-02-18T10:39:19;95449.31;;;17.29;29.36
6435;BME280;3250;42.694;23.278;2023-02-18T10:44:31;95436.47;;;17.26;29.63
6435;BME280;3250;42.694;23.278;2023-02-18T10:47:13;95422.13;;;17.27;29.91
6435;BME280;3250;42.694;23.278;2023-02-18T10:52:24;95412.19;;;16.94;31.13
6435;BME280;3250;42.694;23.278;2023-02-18T10:54:57;95429.31;;;17.15;32.02
6435;BME280;3250;42.694;23.278;2023-02-18T10:57:23;95411.75;;;17.14;30.76
6435;BME280;3250;42.694;23.278;2023-02-18T11:02:25;95424.50;;;16.60;32.00
6435;BME280;3250;42.694;23.278;2023-02-18T11:04:50;95398.38;;;16.45;31.53
6435;BME280;3250;42.694;23.278;2023-02-18T11:07:25;95413.97;;;16.53;31.34
6435;BME280;3250;42.694;23.278;2023-02-18T11:09:53;95406.56;;;16.55;30.08
6435;BME280;3250;42.694;23.278;2023-02-18T11:12:28;95381.63;;;16.45;30.60
6435;BME280;3250;42.694;23.278;2023-02-18T11:17:34;95377.56;;;16.54;29.57
6435;BME280;3250;42.694;23.278;2023-02-18T11:22:43;95403.47;;;16.58;30.53
6435;BME280;3250;42.694;23.278;2023-02-18T11:25:22;95386.84;;;16.51;30.74
6435;BME280;3250;42.694;23.278;2023-02-18T11:27:53;95369.28;;;16.39;30.88
6435;BME280;3250;42.694;23.278;2023-02-18T11:30:31;95376.66;;;16.48;30.94
6435;BME280;3250;42.694;23.278;2023-02-18T11:33:13;95363.69;;;16.52;31.44
6435;BME280;3250;42.694;23.278;2023-02-18T11:35:48;95361.72;;;16.59;30.51
6435;BME280;3250;42.694;23.278;2023-02-18T11:38:24;95357.44;;;16.70;30.49
6435;BME280;3250;42.694;23.278;2023-02-18T11:40:55;95337.47;;;16.67;30.37
6435;BME280;3250;42.694;23.278;2023-02-18T11:43:24;95323.22;;;16.73;29.72
6435;BME280;3250;42.694;23.278;2023-02-18T11:46:11;95336.50;;;17.02;29.67
6435;BME280;3250;42.694;23.278;2023-02-18T11:48:37;95356.78;;;17.19;28.91
6435;BME280;3250;42.694;23.278;2023-02-18T11:51:02;95346.44;;;17.23;29.18
6435;BME280;3250;42.694;23.278;2023-02-18T11:53:31;95327.97;;;17.16;28.80
6435;BME280;3250;42.694;23.278;2023-02-18T11:55:59;95350.69;;;17.35;28.58
6435;BME280;3250;42.694;23.278;2023-02-18T11:58:26;95347.19;;;17.35;28.52
6435;BME280;3250;42.694;23.278;2023-02-18T12:00:58;95322.72;;;17.21;28.86
6435;BME280;3250;42.694;23.278;2023-02-18T12:03:42;95342.94;;;17.34;29.36
6435;BME280;3250;42.694;23.278;2023-02-18T12:06:19;95327.69;;;17.29;28.93
6435;BME280;3250;42.694;23.278;2023-02-18T12:11:47;95323.66;;;17.27;28.79
6435;BME280;3250;42.694;23.278;2023-02-18T12:14:21;95331.06;;;17.25;30.17
6435;BME280;3250;42.694;23.278;2023-02-18T12:17:07;95316.78;;;17.31;30.21
6435;BME280;3250;42.694;23.278;2023-02-18T12:19:42;95311.63;;;17.41;30.25
6435;BME280;3250;42.694;23.278;2023-02-18T12:22:41;95318.16;;;17.33;30.20
6435;BME280;3250;42.694;23.278;2023-02-18T12:28:16;95315.03;;;17.20;30.97
6435;BME280;3250;42.694;23.278;2023-02-18T12:31:11;95308.53;;;17.16;30.88
6435;BME280;3250;42.694;23.278;2023-02-18T12:36:17;95286.16;;;17.28;30.82
6435;BME280;3250;42.694;23.278;2023-02-18T12:39:08;95284.78;;;17.26;31.05
6435;BME280;3250;42.694;23.278;2023-02-18T12:55:35;95258.66;;;16.78;31.83
6435;BME280;3250;42.694;23.278;2023-02-18T13:09:42;95265.00;;;17.05;31.08
6435;BME280;3250;42.694;23.278;2023-02-18T13:12:53;95258.72;;;16.94;31.22
6435;BME280;3250;42.694;23.278;2023-02-18T13:15:29;95256.59;;;16.96;30.74
6435;BME280;3250;42.694;23.278;2023-02-18T13:17:59;95275.09;;;17.03;31.57
6435;BME280;3250;42.694;23.278;2023-02-18T13:20:35;95269.44;;;17.16;30.90
6435;BME280;3250;42.694;23.278;2023-02-18T13:23:03;95265.41;;;17.14;31.63
6435;BME280;3250;42.694;23.278;2023-02-18T13:25:35;95263.72;;;17.08;32.57
6435;BME280;3250;42.694;23.278;2023-02-18T13:28:16;95271.13;;;17.06;33.25
6435;BME280;3250;42.694;23.278;2023-02-18T13:35:59;95283.06;;;16.86;33.91
6435;BME280;3250;42.694;23.278;2023-02-18T13:41:10;95274.53;;;16.73;33.67
6435;BME280;3250;42.694;23.278;2023-02-18T13:43:35;95260.59;;;16.54;34.00
6435;BME280;3250;42.694;23.278;2023-02-18T13:46:15;95268.25;;;16.50;33.66
6435;BME280;3250;42.694;23.278;2023-02-18T13:51:16;95263.44;;;16.36;35.49
6435;BME280;3250;42.694;23.278;2023-02-18T13:53:50;95263.44;;;16.36;34.93
6435;BME280;3250;42.694;23.278;2023-02-18T13:56:25;95267.28;;;16.28;34.75
6435;BME280;3250;42.694;23.278;2023-02-18T13:58:59;95262.69;;;16.23;35.25
6435;BME280;3250;42.694;23.278;2023-02-18T14:01:43;95262.41;;;16.08;35.67
6435;BME280;3250;42.694;23.278;2023-02-18T14:09:52;95245.81;;;15.78;35.54
6435;BME280;3250;42.694;23.278;2023-02-18T14:31:18;95254.53;;;15.08;37.13
6435;BME280;3250;42.694;23.278;2023-02-18T14:50:00;95251.72;;;14.80;37.58
6435;BME280;3250;42.694;23.278;2023-02-18T14:54:53;95256.34;;;14.85;37.75
6435;BME280;3250;42.694;23.278;2023-02-18T14:57:24;95255.19;;;14.81;37.93
6435;BME280;3250;42.694;23.278;2023-02-18T14:59:57;95245.38;;;14.69;37.91
6435;BME280;3250;42.694;23.278;2023-02-18T15:02:25;95250.19;;;14.72;39.10
6435;BME280;3250;42.694;23.278;2023-02-18T15:04:52;95258.38;;;14.71;38.34
6435;BME280;3250;42.694;23.278;2023-02-18T15:07:21;95256.19;;;14.68;37.91
6435;BME280;3250;42.694;23.278;2023-02-18T15:09:49;95265.28;;;14.60;39.18
6435;BME280;3250;42.694;23.278;2023-02-18T15:12:21;95237.81;;;14.43;38.96
6435;BME280;3250;42.694;23.278;2023-02-18T15:14:50;95261.09;;;14.53;38.79
6435;BME280;3250;42.694;23.278;2023-02-18T15:17:19;95255.22;;;14.51;39.17
6435;BME280;3250;42.694;23.278;2023-02-18T15:19:50;95259.56;;;14.45;39.15
6435;BME280;3250;42.694;23.278;2023-02-18T15:22:18;95255.31;;;14.44;39.83
6435;BME280;3250;42.694;23.278;2023-02-18T15:24:45;95247.94;;;14.28;39.65
6435;BME280;3250;42.694;23.278;2023-02-18T15:27:12;95252.34;;;14.34;39.39
6435;BME280;3250;42.694;23.278;2023-02-18T15:29:39;95259.50;;;14.33;39.58
6435;BME280;3250;42.694;23.278;2023-02-18T15:32:20;95242.72;;;14.21;40.30
6435;BME280;3250;42.694;23.278;2023-02-18T15:34:51;95248.06;;;14.03;40.05
6435;BME280;3250;42.694;23.278;2023-02-18T15:37:17;95241.66;;;13.92;41.79
6435;BME280;3250;42.694;23.278;2023-02-18T15:39:44;95232.44;;;13.83;40.56
6435;BME280;3250;42.694;23.278;2023-02-18T15:42:27;95238.53;;;13.66;40.91
6435;BME280;3250;42.694;23.278;2023-02-18T15:45:01;95249.47;;;13.69;41.24
6435;BME280;3250;42.694;23.278;2023-02-18T15:47:27;95227.84;;;13.54;41.17
6435;BME280;3250;42.694;23.278;2023-02-18T15:49:56;95226.53;;;13.45;41.36
6435;BME280;3250;42.694;23.278;2023-02-18T15:52:26;95229.38;;;13.43;41.54
6435;BME280;3250;42.694;23.278;2023-02-18T15:54:52;95200.56;;;13.17;41.77
6435;BME280;3250;42.694;23.278;2023-02-18T15:57:27;95238.38;;;13.17;42.29
6435;BME280;3250;42.694;23.278;2023-02-18T16:00:10;95231.34;;;13.05;42.49
6435;BME280;3250;42.694;23.278;2023-02-18T16:02:53;95217.91;;;12.81;43.15